sensor_id;sensor_type;location;lat;lon;timestamp;P1;durP1;ratioP1;P2;durP2;ratioP2
58864;SDS011;45702;52.982;6.658;2023-08-12T00:01:51;14.15;;;6.25;;
58864;SDS011;45702;52.982;6.658;2023-08-12T00:04:16;17.23;;;7.97;;
58864;SDS011;45702;52.982;6.658;2023-08-12T00:06:42;18.75;;;7.10;;
58864;SDS011;45702;52.982;6.658;2023-08-12T00:09:08;15.02;;;6.97;;
58864;SDS011;45702;52.982;6.658;2023-08-12T00:14:02;17.25;;;7.57;;
58864;SDS011;45702;52.982;6.658;2023-08-12T00:16:28;16.58;;;7.00;;
58864;SDS011;45702;52.982;6.658;2023-08-12T00:18:54;16.50;;;7.03;;
58864;SDS011;45702;52.982;6.658;2023-08-12T00:21:20;16.80;;;7.05;;
58864;SDS011;45702;52.982;6.658;2023-08-12T00:23:45;16.02;;;7.57;;
58864;SDS011;45702;52.982;6.658;2023-08-12T00:26:12;18.90;;;6.88;;
58864;SDS011;45702;52.982;6.658;2023-08-12T00:28:38;14.60;;;7.00;;
58864;SDS011;45702;52.982;6.658;2023-08-12T00:31:04;19.73;;;7.75;;
58864;SDS011;45702;52.982;6.658;2023-08-12T00:33:30;14.00;;;6.28;;
58864;SDS011;45702;52.982;6.658;2023-08-12T00:35:55;15.82;;;6.43;;
58864;SDS011;45702;52.982;6.658;2023-08-12T00:38:21;12.23;;;6.07;;
58864;SDS011;45702;52.982;6.658;2023-08-12T00:40:47;13.23;;;6.57;;
58864;SDS011;45702;52.982;6.658;2023-08-12T00:43:13;15.63;;;6.43;;
58864;SDS011;45702;52.982;6.658;2023-08-12T00:45:39;12.60;;;6.35;;
58864;SDS011;45702;52.982;6.658;2023-08-12T00:48:06;17.60;;;7.28;;
58864;SDS011;45702;52.982;6.658;2023-08-12T00:50:33;12.80;;;6.45;;
58864;SDS011;45702;52.982;6.658;2023-08-12T00:52:59;16.55;;;6.25;;
58864;SDS011;45702;52.982;6.658;2023-08-12T00:55:25;14.55;;;7.20;;
58864;SDS011;45702;52.982;6.658;2023-08-12T00:57:51;14.05;;;7.03;;
58864;SDS011;45702;52.982;6.658;2023-08-12T01:00:17;12.63;;;6.57;;
58864;SDS011;45702;52.982;6.658;2023-08-12T01:02:46;13.07;;;6.53;;
58864;SDS011;45702;52.982;6.658;2023-08-12T01:05:16;16.60;;;7.57;;
58864;SDS011;45702;52.982;6.658;2023-08-12T01:07:43;14.82;;;7.03;;
58864;SDS011;45702;52.982;6.658;2023-08-12T01:10:10;16.63;;;6.90;;
58864;SDS011;45702;52.982;6.658;2023-08-12T01:13:16;17.90;;;7.40;;
58864;SDS011;45702;52.982;6.658;2023-08-12T01:15:50;15.23;;;6.60;;
58864;SDS011;45702;52.982;6.658;2023-08-12T01:18:19;16.70;;;7.60;;
58864;SDS011;45702;52.982;6.658;2023-08-12T01:20:45;15.73;;;7.28;;
58864;SDS011;45702;52.982;6.658;2023-08-12T01:23:13;17.92;;;8.02;;
58864;SDS011;45702;52.982;6.658;2023-08-12T01:25:39;22.10;;;8.00;;
58864;SDS011;45702;52.982;6.658;2023-08-12T01:28:08;20.98;;;7.50;;
58864;SDS011;45702;52.982;6.658;2023-08-12T01:30:46;18.92;;;7.72;;
58864;SDS011;45702;52.982;6.658;2023-08-12T01:33:28;18.50;;;7.70;;
58864;SDS011;45702;52.982;6.658;2023-08-12T01:36:11;19.25;;;7.88;;
58864;SDS011;45702;52.982;6.658;2023-08-12T01:38:41;19.55;;;8.15;;
58864;SDS011;45702;52.982;6.658;2023-08-12T01:41:08;15.73;;;7.85;;
58864;SDS011;45702;52.982;6.658;2023-08-12T01:43:37;19.90;;;8.85;;
58864;SDS011;45702;52.982;6.658;2023-08-12T01:46:03;18.65;;;8.57;;
58864;SDS011;45702;52.982;6.658;2023-08-12T01:48:29;17.98;;;8.07;;
58864;SDS011;45702;52.982;6.658;2023-08-12T01:50:55;15.40;;;8.50;;
58864;SDS011;45702;52.982;6.658;2023-08-12T01:53:20;19.35;;;8.70;;
58864;SDS011;45702;52.982;6.658;2023-08-12T01:55:48;19.02;;;8.60;;
58864;SDS011;45702;52.982;6.658;2023-08-12T01:58:15;23.52;;;8.15;;
58864;SDS011;45702;52.982;6.658;2023-08-12T02:00:40;20.42;;;9.10;;
58864;SDS011;45702;52.982;6.658;2023-08-12T02:03:06;18.17;;;8.85;;
58864;SDS011;45702;52.982;6.658;2023-08-12T02:05:32;22.90;;;9.43;;
58864;SDS011;45702;52.982;6.658;2023-08-12T02:07:58;24.30;;;10.25;;
58864;SDS011;45702;52.982;6.658;2023-08-12T02:10:24;18.70;;;9.77;;
58864;SDS011;45702;52.982;6.658;2023-08-12T02:12:49;21.13;;;9.45;;
58864;SDS011;45702;52.982;6.658;2023-08-12T02:15:15;20.50;;;9.40;;
58864;SDS011;45702;52.982;6.658;2023-08-12T02:17:41;26.27;;;11.50;;
58864;SDS011;45702;52.982;6.658;2023-08-12T02:20:07;23.52;;;10.57;;
58864;SDS011;45702;52.982;6.658;2023-08-12T02:22:33;23.40;;;10.32;;
58864;SDS011;45702;52.982;6.658;2023-08-12T02:24:58;24.55;;;11.02;;
58864;SDS011;45702;52.982;6.658;2023-08-12T02:27:25;24.45;;;11.48;;
58864;SDS011;45702;52.982;6.658;2023-08-12T02:29:51;27.33;;;11.57;;
58864;SDS011;45702;52.982;6.658;2023-08-12T02:32:16;29.90;;;11.85;;
58864;SDS011;45702;52.982;6.658;2023-08-12T02:34:42;26.67;;;11.73;;
58864;SDS011;45702;52.982;6.658;2023-08-12T02:37:08;25.65;;;11.23;;
58864;SDS011;45702;52.982;6.658;2023-08-12T02:39:33;28.60;;;12.60;;
58864;SDS011;45702;52.982;6.658;2023-08-12T02:41:59;28.08;;;12.10;;
58864;SDS011;45702;52.982;6.658;2023-08-12T02:44:25;30.35;;;13.35;;
58864;SDS011;45702;52.982;6.658;2023-08-12T02:46:50;30.15;;;13.38;;
58864;SDS011;45702;52.982;6.658;2023-08-12T02:49:16;31.75;;;13.38;;
58864;SDS011;45702;52.982;6.658;2023-08-12T02:51:42;30.33;;;14.48;;
58864;SDS011;45702;52.982;6.658;2023-08-12T02:54:08;32.03;;;14.38;;
58864;SDS011;45702;52.982;6.658;2023-08-12T02:56:33;29.92;;;14.40;;
58864;SDS011;45702;52.982;6.658;2023-08-12T02:58:59;36.35;;;15.43;;
58864;SDS011;45702;52.982;6.658;2023-08-12T03:01:25;35.50;;;16.10;;
58864;SDS011;45702;52.982;6.658;2023-08-12T03:03:52;40.35;;;15.82;;
58864;SDS011;45702;52.982;6.658;2023-08-12T03:06:17;32.40;;;15.45;;
58864;SDS011;45702;52.982;6.658;2023-08-12T03:08:43;34.03;;;16.60;;
58864;SDS011;45702;52.982;6.658;2023-08-12T03:11:09;35.05;;;16.02;;
58864;SDS011;45702;52.982;6.658;2023-08-12T03:13:35;37.33;;;17.15;;
58864;SDS011;45702;52.982;6.658;2023-08-12T03:16:00;37.80;;;16.83;;
58864;SDS011;45702;52.982;6.658;2023-08-12T03:18:26;36.20;;;17.00;;
58864;SDS011;45702;52.982;6.658;2023-08-12T03:20:52;36.10;;;16.83;;
58864;SDS011;45702;52.982;6.658;2023-08-12T03:23:17;38.72;;;17.85;;
58864;SDS011;45702;52.982;6.658;2023-08-12T03:25:43;40.25;;;17.88;;
58864;SDS011;45702;52.982;6.658;2023-08-12T03:28:09;37.63;;;17.38;;
58864;SDS011;45702;52.982;6.658;2023-08-12T03:30:35;39.63;;;17.45;;
58864;SDS011;45702;52.982;6.658;2023-08-12T03:33:00;43.72;;;19.35;;
58864;SDS011;45702;52.982;6.658;2023-08-12T03:35:26;39.70;;;18.33;;
58864;SDS011;45702;52.982;6.658;2023-08-12T03:37:52;41.30;;;18.60;;
58864;SDS011;45702;52.982;6.658;2023-08-12T03:40:18;41.78;;;19.52;;
58864;SDS011;45702;52.982;6.658;2023-08-12T03:42:44;46.75;;;18.88;;
58864;SDS011;45702;52.982;6.658;2023-08-12T03:45:09;50.20;;;20.70;;
58864;SDS011;45702;52.982;6.658;2023-08-12T03:47:35;47.00;;;20.27;;
58864;SDS011;45702;52.982;6.658;2023-08-12T03:50:01;47.47;;;19.40;;
58864;SDS011;45702;52.982;6.658;2023-08-12T03:52:27;40.53;;;19.23;;
58864;SDS011;45702;52.982;6.658;2023-08-12T03:54:52;43.80;;;20.30;;
58864;SDS011;45702;52.982;6.658;2023-08-12T03:57:18;46.40;;;20.95;;
58864;SDS011;45702;52.982;6.658;2023-08-12T03:59:44;40.22;;;19.40;;
58864;SDS011;45702;52.982;6.658;2023-08-12T04:02:10;46.75;;;20.75;;
58864;SDS011;45702;52.982;6.658;2023-08-12T04:04:35;42.08;;;20.05;;
58864;SDS011;45702;52.982;6.658;2023-08-12T04:07:01;43.92;;;21.00;;
58864;SDS011;45702;52.982;6.658;2023-08-12T04:09:27;40.97;;;20.17;;
58864;SDS011;45702;52.982;6.658;2023-08-12T04:11:52;49.67;;;20.08;;
58864;SDS011;45702;52.982;6.658;2023-08-12T04:14:18;43.70;;;20.25;;
58864;SDS011;45702;52.982;6.658;2023-08-12T04:16:44;41.85;;;20.17;;
58864;SDS011;45702;52.982;6.658;2023-08-12T04:19:10;47.25;;;19.77;;
58864;SDS011;45702;52.982;6.658;2023-08-12T04:21:35;44.10;;;20.38;;
58864;SDS011;45702;52.982;6.658;2023-08-12T04:24:01;42.75;;;21.02;;
58864;SDS011;45702;52.982;6.658;2023-08-12T04:26:27;43.17;;;20.35;;
58864;SDS011;45702;52.982;6.658;2023-08-12T04:28:53;52.10;;;21.70;;
58864;SDS011;45702;52.982;6.658;2023-08-12T04:31:19;44.00;;;20.88;;
58864;SDS011;45702;52.982;6.658;2023-08-12T04:33:44;39.95;;;20.75;;
58864;SDS011;45702;52.982;6.658;2023-08-12T04:36:10;43.40;;;21.00;;
58864;SDS011;45702;52.982;6.658;2023-08-12T04:38:36;45.30;;;21.05;;
58864;SDS011;45702;52.982;6.658;2023-08-12T04:41:02;45.72;;;20.98;;
58864;SDS011;45702;52.982;6.658;2023-08-12T04:43:27;44.13;;;20.40;;
58864;SDS011;45702;52.982;6.658;2023-08-12T04:45:53;45.33;;;20.65;;
58864;SDS011;45702;52.982;6.658;2023-08-12T04:48:19;39.47;;;20.08;;
58864;SDS011;45702;52.982;6.658;2023-08-12T04:50:44;49.25;;;21.02;;
58864;SDS011;45702;52.982;6.658;2023-08-12T04:53:10;45.22;;;20.23;;
58864;SDS011;45702;52.982;6.658;2023-08-12T04:55:36;46.58;;;21.30;;
58864;SDS011;45702;52.982;6.658;2023-08-12T04:58:03;42.83;;;21.73;;
58864;SDS011;45702;52.982;6.658;2023-08-12T05:00:29;51.45;;;21.23;;
58864;SDS011;45702;52.982;6.658;2023-08-12T05:02:55;48.17;;;20.83;;
58864;SDS011;45702;52.982;6.658;2023-08-12T05:05:21;43.70;;;21.58;;
58864;SDS011;45702;52.982;6.658;2023-08-12T05:07:46;50.25;;;22.10;;
58864;SDS011;45702;52.982;6.658;2023-08-12T05:12:42;44.17;;;20.55;;
58864;SDS011;45702;52.982;6.658;2023-08-12T05:15:09;43.28;;;19.83;;
58864;SDS011;45702;52.982;6.658;2023-08-12T05:17:35;46.22;;;21.58;;
58864;SDS011;45702;52.982;6.658;2023-08-12T05:20:01;47.65;;;21.42;;
58864;SDS011;45702;52.982;6.658;2023-08-12T05:22:28;42.85;;;20.80;;
58864;SDS011;45702;52.982;6.658;2023-08-12T05:24:54;47.67;;;20.92;;
58864;SDS011;45702;52.982;6.658;2023-08-12T05:27:20;44.65;;;21.63;;
58864;SDS011;45702;52.982;6.658;2023-08-12T05:29:45;42.35;;;21.23;;
58864;SDS011;45702;52.982;6.658;2023-08-12T05:32:11;46.88;;;22.15;;
58864;SDS011;45702;52.982;6.658;2023-08-12T05:34:37;45.92;;;21.50;;
58864;SDS011;45702;52.982;6.658;2023-08-12T05:37:02;44.60;;;21.20;;
58864;SDS011;45702;52.982;6.658;2023-08-12T05:39:28;49.25;;;22.23;;
58864;SDS011;45702;52.982;6.658;2023-08-12T05:41:54;49.80;;;22.42;;
58864;SDS011;45702;52.982;6.658;2023-08-12T05:44:20;49.47;;;22.70;;
58864;SDS011;45702;52.982;6.658;2023-08-12T05:46:45;44.80;;;22.90;;
58864;SDS011;45702;52.982;6.658;2023-08-12T05:49:11;44.58;;;22.35;;
58864;SDS011;45702;52.982;6.658;2023-08-12T05:51:37;44.15;;;21.90;;
58864;SDS011;45702;52.982;6.658;2023-08-12T05:54:03;45.25;;;22.70;;
58864;SDS011;45702;52.982;6.658;2023-08-12T05:56:32;48.70;;;22.55;;
58864;SDS011;45702;52.982;6.658;2023-08-12T05:58:58;42.30;;;21.73;;
58864;SDS011;45702;52.982;6.658;2023-08-12T06:01:24;47.47;;;22.08;;
58864;SDS011;45702;52.982;6.658;2023-08-12T06:03:49;45.33;;;22.92;;
58864;SDS011;45702;52.982;6.658;2023-08-12T06:06:15;44.42;;;21.83;;
58864;SDS011;45702;52.982;6.658;2023-08-12T06:08:41;47.05;;;23.55;;
58864;SDS011;45702;52.982;6.658;2023-08-12T06:11:07;52.78;;;23.52;;
58864;SDS011;45702;52.982;6.658;2023-08-12T06:13:32;50.95;;;23.45;;
58864;SDS011;45702;52.982;6.658;2023-08-12T06:15:58;49.08;;;23.25;;
58864;SDS011;45702;52.982;6.658;2023-08-12T06:18:24;47.55;;;23.65;;
58864;SDS011;45702;52.982;6.658;2023-08-12T06:20:49;47.78;;;23.52;;
58864;SDS011;45702;52.982;6.658;2023-08-12T06:23:15;45.30;;;23.33;;
58864;SDS011;45702;52.982;6.658;2023-08-12T06:25:41;44.65;;;22.48;;
58864;SDS011;45702;52.982;6.658;2023-08-12T06:28:09;42.33;;;21.63;;
58864;SDS011;45702;52.982;6.658;2023-08-12T06:30:35;46.47;;;22.95;;
58864;SDS011;45702;52.982;6.658;2023-08-12T06:33:01;44.78;;;21.88;;
58864;SDS011;45702;52.982;6.658;2023-08-12T06:35:27;49.03;;;22.75;;
58864;SDS011;45702;52.982;6.658;2023-08-12T06:37:52;44.08;;;22.58;;
58864;SDS011;45702;52.982;6.658;2023-08-12T06:40:18;50.97;;;23.70;;
58864;SDS011;45702;52.982;6.658;2023-08-12T06:42:44;45.92;;;22.58;;
58864;SDS011;45702;52.982;6.658;2023-08-12T06:45:10;48.17;;;22.73;;
58864;SDS011;45702;52.982;6.658;2023-08-12T06:47:36;44.25;;;22.30;;
58864;SDS011;45702;52.982;6.658;2023-08-12T06:50:02;47.45;;;21.65;;
58864;SDS011;45702;52.982;6.658;2023-08-12T06:52:28;51.38;;;23.23;;
58864;SDS011;45702;52.982;6.658;2023-08-12T06:54:53;55.20;;;25.38;;
58864;SDS011;45702;52.982;6.658;2023-08-12T06:57:19;50.25;;;24.75;;
58864;SDS011;45702;52.982;6.658;2023-08-12T06:59:45;56.75;;;26.25;;
58864;SDS011;45702;52.982;6.658;2023-08-12T07:02:11;51.33;;;25.52;;
58864;SDS011;45702;52.982;6.658;2023-08-12T07:04:37;48.85;;;25.60;;
58864;SDS011;45702;52.982;6.658;2023-08-12T07:07:03;54.90;;;25.70;;
58864;SDS011;45702;52.982;6.658;2023-08-12T07:09:28;54.15;;;26.23;;
58864;SDS011;45702;52.982;6.658;2023-08-12T07:11:54;59.22;;;26.80;;
58864;SDS011;45702;52.982;6.658;2023-08-12T07:14:20;54.80;;;26.77;;
58864;SDS011;45702;52.982;6.658;2023-08-12T07:16:45;53.85;;;26.58;;
58864;SDS011;45702;52.982;6.658;2023-08-12T07:19:11;59.78;;;27.67;;
58864;SDS011;45702;52.982;6.658;2023-08-12T07:21:37;55.53;;;28.80;;
58864;SDS011;45702;52.982;6.658;2023-08-12T07:24:02;56.72;;;26.88;;
58864;SDS011;45702;52.982;6.658;2023-08-12T07:26:28;64.38;;;30.30;;
58864;SDS011;45702;52.982;6.658;2023-08-12T07:28:54;57.00;;;29.48;;
58864;SDS011;45702;52.982;6.658;2023-08-12T07:31:21;55.65;;;28.35;;
58864;SDS011;45702;52.982;6.658;2023-08-12T07:33:47;60.25;;;28.05;;
58864;SDS011;45702;52.982;6.658;2023-08-12T07:36:12;57.58;;;28.55;;
58864;SDS011;45702;52.982;6.658;2023-08-12T07:38:38;62.75;;;29.23;;
58864;SDS011;45702;52.982;6.658;2023-08-12T07:41:04;66.45;;;29.35;;
58864;SDS011;45702;52.982;6.658;2023-08-12T07:43:30;63.10;;;29.48;;
58864;SDS011;45702;52.982;6.658;2023-08-12T07:45:55;56.70;;;28.98;;
58864;SDS011;45702;52.982;6.658;2023-08-12T07:48:21;53.80;;;29.13;;
58864;SDS011;45702;52.982;6.658;2023-08-12T07:50:47;58.65;;;29.98;;
58864;SDS011;45702;52.982;6.658;2023-08-12T07:55:41;59.72;;;29.25;;
58864;SDS011;45702;52.982;6.658;2023-08-12T07:58:07;54.88;;;29.00;;
58864;SDS011;45702;52.982;6.658;2023-08-12T08:00:33;62.53;;;28.85;;
58864;SDS011;45702;52.982;6.658;2023-08-12T08:02:59;63.60;;;29.75;;
58864;SDS011;45702;52.982;6.658;2023-08-12T08:05:26;58.72;;;28.52;;
58864;SDS011;45702;52.982;6.658;2023-08-12T08:07:52;58.28;;;28.58;;
58864;SDS011;45702;52.982;6.658;2023-08-12T08:10:18;55.35;;;28.40;;
58864;SDS011;45702;52.982;6.658;2023-08-12T08:12:43;56.38;;;28.52;;
58864;SDS011;45702;52.982;6.658;2023-08-12T08:15:10;53.10;;;28.23;;
58864;SDS011;45702;52.982;6.658;2023-08-12T08:17:36;60.63;;;27.85;;
58864;SDS011;45702;52.982;6.658;2023-08-12T08:20:01;53.25;;;26.63;;
58864;SDS011;45702;52.982;6.658;2023-08-12T08:22:28;52.97;;;26.20;;
58864;SDS011;45702;52.982;6.658;2023-08-12T08:24:53;51.22;;;25.90;;
58864;SDS011;45702;52.982;6.658;2023-08-12T08:27:19;51.22;;;25.95;;
58864;SDS011;45702;52.982;6.658;2023-08-12T08:29:45;49.70;;;26.15;;
58864;SDS011;45702;52.982;6.658;2023-08-12T08:32:10;43.05;;;23.38;;
58864;SDS011;45702;52.982;6.658;2023-08-12T08:34:36;43.80;;;24.08;;
58864;SDS011;45702;52.982;6.658;2023-08-12T08:37:02;49.22;;;23.92;;
58864;SDS011;45702;52.982;6.658;2023-08-12T08:39:28;43.25;;;23.27;;
58864;SDS011;45702;52.982;6.658;2023-08-12T08:41:54;44.53;;;24.63;;
58864;SDS011;45702;52.982;6.658;2023-08-12T08:44:21;46.72;;;24.38;;
58864;SDS011;45702;52.982;6.658;2023-08-12T08:46:49;46.53;;;24.15;;
58864;SDS011;45702;52.982;6.658;2023-08-12T08:49:18;48.22;;;25.95;;
58864;SDS011;45702;52.982;6.658;2023-08-12T08:51:46;42.97;;;25.23;;
58864;SDS011;45702;52.982;6.658;2023-08-12T08:54:12;52.67;;;27.05;;
58864;SDS011;45702;52.982;6.658;2023-08-12T08:56:38;49.55;;;27.27;;
58864;SDS011;45702;52.982;6.658;2023-08-12T08:59:04;53.40;;;28.45;;
58864;SDS011;45702;52.982;6.658;2023-08-12T09:01:30;54.55;;;30.08;;
58864;SDS011;45702;52.982;6.658;2023-08-12T09:03:57;57.38;;;29.80;;
58864;SDS011;45702;52.982;6.658;2023-08-12T09:06:25;60.53;;;29.25;;
58864;SDS011;45702;52.982;6.658;2023-08-12T09:08:52;61.63;;;30.63;;
58864;SDS011;45702;52.982;6.658;2023-08-12T09:11:19;61.85;;;30.40;;
58864;SDS011;45702;52.982;6.658;2023-08-12T09:13:46;62.85;;;30.38;;
58864;SDS011;45702;52.982;6.658;2023-08-12T09:16:12;55.00;;;28.67;;
58864;SDS011;45702;52.982;6.658;2023-08-12T09:18:39;65.95;;;30.92;;
58864;SDS011;45702;52.982;6.658;2023-08-12T09:23:40;54.25;;;26.92;;
58864;SDS011;45702;52.982;6.658;2023-08-12T09:26:17;48.72;;;23.77;;
58864;SDS011;45702;52.982;6.658;2023-08-12T09:28:44;34.15;;;19.17;;
58864;SDS011;45702;52.982;6.658;2023-08-12T09:31:23;34.78;;;18.98;;
58864;SDS011;45702;52.982;6.658;2023-08-12T09:33:50;33.47;;;17.98;;
58864;SDS011;45702;52.982;6.658;2023-08-12T09:36:16;28.50;;;16.10;;
58864;SDS011;45702;52.982;6.658;2023-08-12T09:38:43;34.05;;;18.05;;
58864;SDS011;45702;52.982;6.658;2023-08-12T09:41:12;32.90;;;17.98;;
58864;SDS011;45702;52.982;6.658;2023-08-12T09:43:41;28.08;;;16.05;;
58864;SDS011;45702;52.982;6.658;2023-08-12T09:46:11;25.77;;;13.80;;
58864;SDS011;45702;52.982;6.658;2023-08-12T09:48:41;29.17;;;14.15;;
58864;SDS011;45702;52.982;6.658;2023-08-12T09:51:07;22.55;;;12.73;;
58864;SDS011;45702;52.982;6.658;2023-08-12T09:53:34;22.13;;;11.50;;
58864;SDS011;45702;52.982;6.658;2023-08-12T09:56:02;26.02;;;12.88;;
58864;SDS011;45702;52.982;6.658;2023-08-12T09:58:32;24.90;;;13.27;;
58864;SDS011;45702;52.982;6.658;2023-08-12T10:01:02;18.35;;;10.75;;
58864;SDS011;45702;52.982;6.658;2023-08-12T10:03:29;18.85;;;10.48;;
58864;SDS011;45702;52.982;6.658;2023-08-12T10:05:55;20.67;;;10.70;;
58864;SDS011;45702;52.982;6.658;2023-08-12T10:08:22;21.08;;;10.32;;
58864;SDS011;45702;52.982;6.658;2023-08-12T10:10:48;19.02;;;9.70;;
58864;SDS011;45702;52.982;6.658;2023-08-12T10:13:14;19.02;;;10.18;;
58864;SDS011;45702;52.982;6.658;2023-08-12T10:15:41;19.65;;;10.05;;
58864;SDS011;45702;52.982;6.658;2023-08-12T10:18:07;21.73;;;9.77;;
58864;SDS011;45702;52.982;6.658;2023-08-12T10:20:33;17.63;;;9.77;;
58864;SDS011;45702;52.982;6.658;2023-08-12T10:23:02;18.55;;;8.68;;
58864;SDS011;45702;52.982;6.658;2023-08-12T10:25:31;14.90;;;8.30;;
58864;SDS011;45702;52.982;6.658;2023-08-12T10:27:59;14.25;;;8.95;;
58864;SDS011;45702;52.982;6.658;2023-08-12T10:30:28;13.13;;;7.63;;
58864;SDS011;45702;52.982;6.658;2023-08-12T10:32:54;15.68;;;8.55;;
58864;SDS011;45702;52.982;6.658;2023-08-12T10:38:20;13.45;;;7.35;;
58864;SDS011;45702;52.982;6.658;2023-08-12T10:40:46;13.70;;;7.63;;
58864;SDS011;45702;52.982;6.658;2023-08-12T10:43:13;14.82;;;7.38;;
58864;SDS011;45702;52.982;6.658;2023-08-12T10:45:43;16.52;;;7.68;;
58864;SDS011;45702;52.982;6.658;2023-08-12T10:48:19;13.95;;;7.38;;
58864;SDS011;45702;52.982;6.658;2023-08-12T10:50:48;16.08;;;7.00;;
58864;SDS011;45702;52.982;6.658;2023-08-12T10:53:21;12.60;;;6.90;;
58864;SDS011;45702;52.982;6.658;2023-08-12T10:55:58;12.53;;;6.73;;
58864;SDS011;45702;52.982;6.658;2023-08-12T10:58:35;12.63;;;7.35;;
58864;SDS011;45702;52.982;6.658;2023-08-12T11:01:08;15.05;;;8.15;;
58864;SDS011;45702;52.982;6.658;2023-08-12T11:03:42;10.32;;;7.30;;
58864;SDS011;45702;52.982;6.658;2023-08-12T11:06:09;11.65;;;7.70;;
58864;SDS011;45702;52.982;6.658;2023-08-12T11:08:36;14.02;;;7.82;;
58864;SDS011;45702;52.982;6.658;2023-08-12T11:11:02;13.52;;;7.07;;
58864;SDS011;45702;52.982;6.658;2023-08-12T11:13:28;7.75;;;5.38;;
58864;SDS011;45702;52.982;6.658;2023-08-12T11:16:05;8.15;;;4.25;;
58864;SDS011;45702;52.982;6.658;2023-08-12T11:18:32;6.13;;;3.20;;
58864;SDS011;45702;52.982;6.658;2023-08-12T11:20:58;4.25;;;2.78;;
58864;SDS011;45702;52.982;6.658;2023-08-12T11:23:24;3.88;;;2.88;;
58864;SDS011;45702;52.982;6.658;2023-08-12T11:25:50;7.47;;;2.78;;
58864;SDS011;45702;52.982;6.658;2023-08-12T11:28:17;4.18;;;2.50;;
58864;SDS011;45702;52.982;6.658;2023-08-12T11:30:46;3.42;;;2.08;;
58864;SDS011;45702;52.982;6.658;2023-08-12T11:33:12;3.38;;;2.28;;
58864;SDS011;45702;52.982;6.658;2023-08-12T11:35:43;3.28;;;2.20;;
58864;SDS011;45702;52.982;6.658;2023-08-12T11:38:09;7.45;;;1.98;;
58864;SDS011;45702;52.982;6.658;2023-08-12T11:40:34;1.55;;;1.08;;
58864;SDS011;45702;52.982;6.658;2023-08-12T11:43:01;1.50;;;1.20;;
58864;SDS011;45702;52.982;6.658;2023-08-12T11:45:28;2.42;;;1.40;;
58864;SDS011;45702;52.982;6.658;2023-08-12T11:47:53;1.85;;;1.60;;
58864;SDS011;45702;52.982;6.658;2023-08-12T11:50:20;4.00;;;1.50;;
58864;SDS011;45702;52.982;6.658;2023-08-12T11:52:47;2.25;;;1.52;;
58864;SDS011;45702;52.982;6.658;2023-08-12T11:55:14;3.60;;;1.65;;
58864;SDS011;45702;52.982;6.658;2023-08-12T11:57:41;7.15;;;1.80;;
58864;SDS011;45702;52.982;6.658;2023-08-12T12:00:09;4.30;;;2.10;;
58864;SDS011;45702;52.982;6.658;2023-08-12T12:02:39;3.28;;;1.88;;
58864;SDS011;45702;52.982;6.658;2023-08-12T12:05:29;3.45;;;2.40;;
58864;SDS011;45702;52.982;6.658;2023-08-12T12:08:01;5.15;;;2.70;;
58864;SDS011;45702;52.982;6.658;2023-08-12T12:10:28;4.82;;;2.67;;
58864;SDS011;45702;52.982;6.658;2023-08-12T12:15:21;5.70;;;3.13;;
58864;SDS011;45702;52.982;6.658;2023-08-12T12:17:48;6.75;;;3.10;;
58864;SDS011;45702;52.982;6.658;2023-08-12T12:20:14;5.05;;;2.65;;
58864;SDS011;45702;52.982;6.658;2023-08-12T12:22:41;3.65;;;2.30;;
58864;SDS011;45702;52.982;6.658;2023-08-12T12:25:12;5.65;;;2.30;;
58864;SDS011;45702;52.982;6.658;2023-08-12T12:27:40;5.63;;;2.65;;
58864;SDS011;45702;52.982;6.658;2023-08-12T12:30:10;5.85;;;2.17;;
58864;SDS011;45702;52.982;6.658;2023-08-12T12:32:37;5.25;;;2.70;;
58864;SDS011;45702;52.982;6.658;2023-08-12T12:35:04;3.47;;;2.20;;
58864;SDS011;45702;52.982;6.658;2023-08-12T12:37:32;3.65;;;2.10;;
58864;SDS011;45702;52.982;6.658;2023-08-12T12:39:58;5.60;;;2.22;;
58864;SDS011;45702;52.982;6.658;2023-08-12T12:42:24;5.93;;;2.17;;
58864;SDS011;45702;52.982;6.658;2023-08-12T12:44:49;6.82;;;2.17;;
58864;SDS011;45702;52.982;6.658;2023-08-12T12:47:15;7.68;;;2.40;;
58864;SDS011;45702;52.982;6.658;2023-08-12T12:49:41;7.93;;;2.53;;
58864;SDS011;45702;52.982;6.658;2023-08-12T12:52:08;8.10;;;3.22;;
58864;SDS011;45702;52.982;6.658;2023-08-12T12:54:33;7.97;;;2.75;;
58864;SDS011;45702;52.982;6.658;2023-08-12T12:56:59;6.57;;;2.25;;
58864;SDS011;45702;52.982;6.658;2023-08-12T12:59:26;7.45;;;2.42;;
58864;SDS011;45702;52.982;6.658;2023-08-12T13:01:52;15.57;;;2.38;;
58864;SDS011;45702;52.982;6.658;2023-08-12T13:04:18;12.52;;;2.83;;
58864;SDS011;45702;52.982;6.658;2023-08-12T13:06:44;10.90;;;3.03;;
58864;SDS011;45702;52.982;6.658;2023-08-12T13:09:10;8.82;;;2.60;;
58864;SDS011;45702;52.982;6.658;2023-08-12T13:11:36;8.05;;;2.60;;
58864;SDS011;45702;52.982;6.658;2023-08-12T13:14:02;9.93;;;2.70;;
58864;SDS011;45702;52.982;6.658;2023-08-12T13:16:28;10.85;;;2.63;;
58864;SDS011;45702;52.982;6.658;2023-08-12T13:18:54;7.25;;;2.25;;
58864;SDS011;45702;52.982;6.658;2023-08-12T13:21:23;8.82;;;2.63;;
58864;SDS011;45702;52.982;6.658;2023-08-12T13:23:49;11.35;;;3.10;;
58864;SDS011;45702;52.982;6.658;2023-08-12T13:26:15;10.63;;;3.30;;
58864;SDS011;45702;52.982;6.658;2023-08-12T13:28:41;12.75;;;3.10;;
58864;SDS011;45702;52.982;6.658;2023-08-12T13:31:07;17.63;;;3.72;;
58864;SDS011;45702;52.982;6.658;2023-08-12T13:33:33;9.55;;;2.67;;
58864;SDS011;45702;52.982;6.658;2023-08-12T13:35:59;8.43;;;3.00;;
58864;SDS011;45702;52.982;6.658;2023-08-12T13:38:25;13.80;;;3.22;;
58864;SDS011;45702;52.982;6.658;2023-08-12T13:40:50;7.70;;;2.78;;
58864;SDS011;45702;52.982;6.658;2023-08-12T13:43:16;8.75;;;2.70;;
58864;SDS011;45702;52.982;6.658;2023-08-12T13:45:42;11.60;;;2.70;;
58864;SDS011;45702;52.982;6.658;2023-08-12T13:48:08;17.30;;;2.97;;
58864;SDS011;45702;52.982;6.658;2023-08-12T13:50:33;9.30;;;3.00;;
58864;SDS011;45702;52.982;6.658;2023-08-12T13:52:59;11.38;;;3.28;;
58864;SDS011;45702;52.982;6.658;2023-08-12T13:55:25;12.38;;;2.90;;
58864;SDS011;45702;52.982;6.658;2023-08-12T13:57:51;11.68;;;3.10;;
58864;SDS011;45702;52.982;6.658;2023-08-12T14:00:18;8.50;;;2.50;;
58864;SDS011;45702;52.982;6.658;2023-08-12T14:02:44;10.18;;;2.60;;
58864;SDS011;45702;52.982;6.658;2023-08-12T14:05:10;10.57;;;2.92;;
58864;SDS011;45702;52.982;6.658;2023-08-12T14:07:36;12.63;;;2.67;;
58864;SDS011;45702;52.982;6.658;2023-08-12T14:10:02;11.93;;;2.90;;
58864;SDS011;45702;52.982;6.658;2023-08-12T14:12:28;10.88;;;2.60;;
58864;SDS011;45702;52.982;6.658;2023-08-12T14:14:54;11.15;;;2.60;;
58864;SDS011;45702;52.982;6.658;2023-08-12T14:17:20;14.15;;;2.97;;
58864;SDS011;45702;52.982;6.658;2023-08-12T14:19:48;12.70;;;3.17;;
58864;SDS011;45702;52.982;6.658;2023-08-12T14:22:16;11.30;;;2.78;;
58864;SDS011;45702;52.982;6.658;2023-08-12T14:24:42;9.52;;;2.53;;
58864;SDS011;45702;52.982;6.658;2023-08-12T14:27:10;13.35;;;2.88;;
58864;SDS011;45702;52.982;6.658;2023-08-12T14:29:35;14.10;;;2.90;;
58864;SDS011;45702;52.982;6.658;2023-08-12T14:32:01;14.70;;;3.05;;
58864;SDS011;45702;52.982;6.658;2023-08-12T14:34:27;10.55;;;2.83;;
58864;SDS011;45702;52.982;6.658;2023-08-12T14:36:53;10.20;;;2.80;;
58864;SDS011;45702;52.982;6.658;2023-08-12T14:39:18;17.17;;;3.47;;
58864;SDS011;45702;52.982;6.658;2023-08-12T14:41:44;6.88;;;2.80;;